Time;durP1;ratioP1;P1;durP2;ratioP2;P2;SDS_P1;SDS_P2;PMS_P1;PMS_P2;Temp;Humidity;BMP_temperature;BMP_pressure;BME280_temperature;BME280_humidity;BME280_pressure;Samples;Min_cycle;Max_cycle;Signal;HPM_P1;HPM_P2
2022/03/23 00:02:18;;;;;;;101.40;41.20;;;;;;;5.82;43.28;100904.25;8424222;28;20044;-75
2022/03/23 00:06:19;;;;;;;94.70;39.50;;;;;;;5.76;43.24;100899.84;8424062;28;20044;-74
2022/03/23 00:10:20;;;;;;;95.68;38.40;;;;;;;5.68;43.56;100897.50;8373505;28;20452;-74
2022/03/23 00:14:21;;;;;;;102.47;39.55;;;;;;;5.63;43.59;100905.41;8423936;28;20040;-75
2022/03/23 00:18:22;;;;;;;96.05;37.40;;;;;;;5.51;43.90;100892.81;8423624;28;20080;-74
2022/03/23 00:22:27;;;;;;;94.22;39.67;;;;;;;5.43;44.22;100889.69;8460706;28;20133;-74
2022/03/23 00:26:28;;;;;;;109.50;42.13;;;;;;;5.46;44.38;100895.38;8462007;28;20516;-74
2022/03/23 00:30:29;;;;;;;94.75;39.75;;;;;;;5.41;44.72;100897.13;8461059;28;20047;-74
2022/03/23 00:34:30;;;;;;;99.03;41.47;;;;;;;5.33;44.69;100890.25;8460971;28;20039;-74
2022/03/23 00:38:31;;;;;;;93.53;39.85;;;;;;;5.22;45.03;100888.38;8461693;28;20044;-74
2022/03/23 00:42:32;;;;;;;92.25;38.28;;;;;;;5.13;45.28;100883.56;8460819;28;20051;-74
2022/03/23 00:46:32;;;;;;;98.05;37.97;;;;;;;5.11;45.45;100889.16;8460886;28;20409;-75
2022/03/23 00:50:36;;;;;;;102.65;36.67;;;;;;;5.00;45.84;100879.22;8460801;28;20415;-75
2022/03/23 00:54:37;;;;;;;96.10;37.17;;;;;;;4.91;45.74;100877.94;8460623;28;20052;-75
2022/03/23 00:58:38;;;;;;;98.15;38.30;;;;;;;4.79;45.50;100871.72;8424207;28;20135;-74
2022/03/23 01:02:39;;;;;;;108.97;41.45;;;;;;;4.63;45.55;100863.28;8459815;28;20047;-75
2022/03/23 01:06:41;;;;;;;113.35;42.22;;;;;;;4.53;45.63;100863.00;8460495;28;20058;-75
2022/03/23 01:10:43;;;;;;;106.38;39.65;;;;;;;4.43;45.98;100861.91;8460745;28;20385;-74
2022/03/23 01:14:44;;;;;;;97.93;39.00;;;;;;;4.36;46.72;100856.63;8459215;28;20070;-75
2022/03/23 01:18:45;;;;;;;96.75;38.80;;;;;;;4.37;47.21;100852.94;8459744;28;20067;-74
2022/03/23 01:22:46;;;;;;;95.57;37.35;;;;;;;4.37;47.48;100857.47;8459723;28;20122;-74
2022/03/23 01:26:47;;;;;;;94.63;37.28;;;;;;;4.37;47.33;100842.22;8440646;28;20081;-74
2022/03/23 01:30:48;;;;;;;89.57;36.67;;;;;;;4.36;48.10;100851.28;8459678;28;20067;-74
2022/03/23 01:34:49;;;;;;;92.40;39.03;;;;;;;4.35;47.68;100855.00;8459980;28;20048;-74
2022/03/23 01:38:50;;;;;;;88.32;36.97;;;;;;;4.25;47.84;100852.06;8459889;28;20042;-74
2022/03/23 01:42:51;;;;;;;91.40;36.60;;;;;;;4.18;47.99;100844.09;8440516;28;20040;-75
2022/03/23 01:47:00;;;;;;;94.15;37.97;;;;;;;4.05;48.42;100854.16;8458558;28;20063;-74
2022/03/23 01:51:01;;;;;;;96.50;38.45;;;;;;;3.95;48.42;100852.00;8459612;28;20070;-74
2022/03/23 01:55:09;;;;;;;105.32;40.45;;;;;;;3.89;48.20;100849.38;8458985;28;20047;-74
2022/03/23 01:59:10;;;;;;;98.72;40.05;;;;;;;3.81;47.92;100842.47;8457845;28;20054;-74
2022/03/23 02:03:11;;;;;;;95.28;39.17;;;;;;;3.75;47.66;100844.19;8406460;28;20127;-74
2022/03/23 02:07:14;;;;;;;100.55;38.00;;;;;;;3.67;48.18;100852.50;8459190;28;20065;-74
2022/03/23 02:11:15;;;;;;;99.75;39.58;;;;;;;3.54;48.73;100839.28;8457904;28;20047;-74
2022/03/23 02:15:17;;;;;;;96.63;39.50;;;;;;;3.38;49.49;100831.84;8459227;28;20412;-74
2022/03/23 02:19:23;;;;;;;97.63;38.80;;;;;;;3.21;50.14;100836.09;8458935;28;20092;-74
2022/03/23 02:23:24;;;;;;;111.10;40.58;;;;;;;3.10;50.07;100844.78;8458983;28;20050;-74
2022/03/23 02:27:26;;;;;;;87.22;37.67;;;;;;;3.01;50.19;100836.25;8448604;28;20044;-74
2022/03/23 02:31:27;;;;;;;99.72;37.50;;;;;;;2.92;50.00;100838.34;8463713;28;20039;-74
2022/03/23 02:35:28;;;;;;;98.60;38.25;;;;;;;2.84;50.36;100835.97;8465101;28;20051;-75
2022/03/23 02:39:28;;;;;;;89.43;38.88;;;;;;;2.78;50.54;100831.47;8464480;28;20035;-74
2022/03/23 02:43:29;;;;;;;97.13;38.05;;;;;;;2.72;50.45;100827.00;8464324;28;20516;-74
2022/03/23 02:47:31;;;;;;;92.93;38.28;;;;;;;2.66;51.07;100827.84;8464917;28;20036;-74
2022/03/23 02:51:32;;;;;;;91.97;39.10;;;;;;;2.59;50.96;100820.94;8464882;27;20112;-74
2022/03/23 03:04:31;;;;;;;95.88;39.50;;;;;;;2.56;51.21;100822.19;8388699;28;20044;-74
2022/03/23 03:08:51;;;;;;;102.97;39.97;;;;;;;2.56;51.10;100827.50;8392464;28;20059;-74
2022/03/23 03:12:53;;;;;;;93.63;37.90;;;;;;;2.53;50.81;100822.63;8392693;28;20053;-74
2022/03/23 03:16:54;;;;;;;97.32;37.97;;;;;;;2.55;50.93;100816.03;8392415;28;20059;-74
2022/03/23 03:20:55;;;;;;;96.78;39.15;;;;;;;2.56;51.21;100811.50;8392348;28;20494;-74
2022/03/23 03:24:56;;;;;;;89.22;40.03;;;;;;;2.56;51.60;100816.84;8392134;28;20110;-75
2022/03/23 03:28:57;;;;;;;98.78;39.63;;;;;;;2.62;51.86;100820.50;8391205;28;20093;-74
2022/03/23 03:32:58;;;;;;;95.75;38.40;;;;;;;2.69;51.49;100821.28;8392295;28;20040;-74
2022/03/23 03:36:59;;;;;;;103.85;38.83;;;;;;;2.68;50.82;100820.47;8444613;28;20109;-74
2022/03/23 03:41:04;;;;;;;90.88;39.45;;;;;;;2.56;51.52;100832.84;8460772;28;20039;-75
2022/03/23 03:45:06;;;;;;;104.43;40.85;;;;;;;2.43;51.70;100822.28;8462875;28;20184;-74
2022/03/23 03:49:07;;;;;;;97.38;39.22;;;;;;;2.22;52.42;100809.25;8424238;28;20062;-74
2022/03/23 03:53:08;;;;;;;99.60;39.47;;;;;;;2.04;52.74;100816.09;8463151;28;20097;-75
2022/03/23 03:57:10;;;;;;;87.32;38.35;;;;;;;1.88;52.99;100819.22;8462536;28;20138;-74
2022/03/23 04:01:14;;;;;;;92.07;39.63;;;;;;;1.75;53.44;100808.59;8462671;28;20056;-74
2022/03/23 04:05:15;;;;;;;93.55;38.67;;;;;;;1.64;53.53;100811.91;8461698;28;20040;-74
2022/03/23 04:09:16;;;;;;;95.18;40.08;;;;;;;1.55;53.59;100807.84;8442951;28;20051;-74
2022/03/23 04:13:17;;;;;;;109.22;41.00;;;;;;;1.44;53.97;100805.81;8461564;28;20055;-74
2022/03/23 04:17:18;;;;;;;94.25;40.25;;;;;;;1.39;54.66;100802.94;8462531;28;20451;-74
2022/03/23 04:21:20;;;;;;;101.30;40.38;;;;;;;1.39;54.38;100813.59;8462005;28;20044;-74
2022/03/23 04:25:21;;;;;;;99.85;40.53;;;;;;;1.42;54.07;100813.19;8460722;28;20036;-74
2022/03/23 04:29:24;;;;;;;105.30;40.42;;;;;;;1.43;53.42;100805.00;8452335;28;20044;-74
2022/03/23 04:33:25;;;;;;;107.25;40.05;;;;;;;1.39;53.49;100808.28;8461633;28;20343;-74
2022/03/23 04:37:26;;;;;;;103.43;39.65;;;;;;;1.36;53.89;100792.72;8461432;28;20036;-74
2022/03/23 04:41:27;;;;;;;104.03;41.25;;;;;;;1.39;54.18;100797.63;8461223;28;20047;-74
2022/03/23 04:45:28;;;;;;;112.30;40.42;;;;;;;1.38;54.45;100806.63;8460414;28;20056;-75
2022/03/23 04:49:29;;;;;;;108.15;40.95;;;;;;;1.34;54.20;100810.75;8460142;28;20176;-75
2022/03/23 04:53:30;;;;;;;97.28;39.05;;;;;;;1.32;54.04;100807.50;8459754;28;20055;-74
2022/03/23 04:57:31;;;;;;;99.18;39.70;;;;;;;1.28;54.00;100813.22;8461831;28;20039;-74
2022/03/23 05:01:32;;;;;;;107.57;41.58;;;;;;;1.26;54.49;100804.63;8461151;28;20528;-74
2022/03/23 05:05:33;;;;;;;107.03;41.08;;;;;;;1.31;54.82;100805.84;8460191;28;20048;-74
2022/03/23 05:09:34;;;;;;;102.78;41.08;;;;;;;1.38;55.01;100801.31;8460037;28;20048;-74
2022/03/23 05:13:35;;;;;;;106.50;42.45;;;;;;;1.46;54.50;100801.09;8460776;28;20082;-74
2022/03/23 05:17:37;;;;;;;109.72;42.05;;;;;;;1.53;54.44;100809.91;8460365;28;20048;-74
2022/03/23 05:21:37;;;;;;;100.57;41.40;;;;;;;1.56;55.01;100809.47;8458902;28;20504;-74
2022/03/23 05:25:38;;;;;;;104.35;40.88;;;;;;;1.64;54.96;100817.22;8459040;28;20047;-74
2022/03/23 05:29:40;;;;;;;108.53;41.90;;;;;;;1.74;54.51;100812.31;8459067;28;20485;-74
2022/03/23 05:33:41;;;;;;;109.38;41.78;;;;;;;1.80;54.54;100811.44;8459049;28;20083;-74
2022/03/23 05:37:41;;;;;;;100.15;42.03;;;;;;;1.81;53.90;100823.75;8460260;28;20055;-75
2022/03/23 05:41:43;;;;;;;140.68;53.60;;;;;;;1.85;54.02;100824.97;8459999;28;20108;-74
2022/03/23 05:45:44;;;;;;;142.35;54.47;;;;;;;1.87;53.80;100820.25;8460088;28;20066;-74
2022/03/23 05:49:45;;;;;;;133.40;52.75;;;;;;;1.89;53.94;100820.88;8460419;28;20048;-74
2022/03/23 05:53:46;;;;;;;165.15;61.78;;;;;;;1.96;53.71;100820.81;8459949;28;20067;-74
2022/03/23 05:57:47;;;;;;;157.25;57.05;;;;;;;2.08;53.76;100819.97;8458720;28;20040;-74
2022/03/23 06:01:48;;;;;;;152.77;56.28;;;;;;;2.27;54.19;100822.75;8460754;28;20066;-74
2022/03/23 06:05:49;;;;;;;150.27;55.35;;;;;;;2.39;53.64;100821.03;8466639;28;20195;-74
2022/03/23 06:09:50;;;;;;;133.35;49.22;;;;;;;2.52;53.51;100820.97;8466379;28;20040;-74
2022/03/23 06:13:51;;;;;;;143.93;48.45;;;;;;;2.68;53.39;100820.47;8465313;28;20048;-74
2022/03/23 06:17:52;;;;;;;131.50;46.10;;;;;;;2.85;53.30;100826.94;8466367;28;20067;-74
2022/03/23 06:21:53;;;;;;;114.57;42.15;;;;;;;3.06;53.60;100816.91;8465969;28;20192;-74
2022/03/23 06:25:54;;;;;;;107.47;40.92;;;;;;;3.28;54.09;100826.97;8465741;28;20035;-74
2022/03/23 06:29:55;;;;;;;114.75;40.50;;;;;;;3.56;54.27;100818.50;8445297;28;20040;-74
2022/03/23 06:33:56;;;;;;;100.68;38.35;;;;;;;3.78;53.88;100825.03;8432269;28;20508;-74
2022/03/23 06:37:57;;;;;;;95.30;36.95;;;;;;;3.98;53.39;100832.00;8412656;28;20044;-74
2022/03/23 06:41:58;;;;;;;86.63;36.17;;;;;;;4.16;52.85;100824.00;8412513;28;20059;-75
2022/03/23 06:46:00;;;;;;;98.70;38.50;;;;;;;4.42;53.04;100820.97;8431855;28;20048;-74
2022/03/23 06:50:00;;;;;;;98.03;37.50;;;;;;;4.66;52.52;100830.69;8432992;28;20391;-74
2022/03/23 06:54:02;;;;;;;92.35;35.83;;;;;;;4.94;52.02;100821.22;8431676;28;20090;-74
2022/03/23 06:58:02;;;;;;;99.50;38.55;;;;;;;5.12;52.16;100829.19;8430996;28;20075;-74
2022/03/23 07:02:05;;;;;;;95.63;40.00;;;;;;;5.28;51.74;100817.81;8430767;28;20497;-74
2022/03/23 07:06:06;;;;;;;103.18;38.22;;;;;;;5.44;51.47;100821.66;8430791;28;20047;-74
2022/03/23 07:10:07;;;;;;;92.38;36.58;;;;;;;5.70;50.75;100815.00;8430754;28;20109;-74
2022/03/23 07:14:08;;;;;;;86.57;36.25;;;;;;;5.82;50.37;100813.91;8429169;28;20516;-74
2022/03/23 07:18:10;;;;;;;81.63;34.97;;;;;;;6.05;50.20;100812.25;8411353;28;20051;-74
2022/03/23 07:22:11;;;;;;;83.00;34.80;;;;;;;6.23;49.50;100810.22;8430553;28;20048;-74
2022/03/23 07:26:15;;;;;;;91.28;34.92;;;;;;;6.49;49.17;100813.41;8442117;28;20078;-74
2022/03/23 07:30:15;;;;;;;89.22;34.00;;;;;;;6.63;48.85;100809.34;8462635;28;20039;-74
2022/03/23 07:34:19;;;;;;;80.45;35.25;;;;;;;6.78;48.53;100812.28;8463823;27;20052;-75
2022/03/23 07:38:19;;;;;;;84.45;33.35;;;;;;;6.92;48.01;100819.00;8463644;28;20493;-75
2022/03/23 07:42:21;;;;;;;93.25;33.92;;;;;;;7.10;47.40;100820.63;8463334;28;20421;-75
2022/03/23 07:51:44;;;;;;;83.05;36.83;;;;;;;7.68;46.63;100822.84;8463343;28;20115;-75
2022/03/23 07:55:45;;;;;;;104.95;43.03;;;;;;;7.79;46.40;100819.25;8462849;28;20047;-74
2022/03/23 07:59:46;;;;;;;97.93;41.28;;;;;;;8.01;46.50;100828.16;8462729;28;20051;-74
2022/03/23 08:03:48;;;;;;;89.43;39.72;;;;;;;8.39;46.14;100823.78;8462758;28;20105;-74
2022/03/23 08:07:50;;;;;;;86.28;37.28;;;;;;;8.60;45.87;100820.25;8461662;28;20489;-75
2022/03/23 08:11:51;;;;;;;84.20;37.83;;;;;;;8.71;45.42;100805.81;8462276;28;20128;-75
2022/03/23 08:15:52;;;;;;;88.85;38.08;;;;;;;8.85;45.31;100817.78;8462462;28;20089;-74
2022/03/23 08:24:13;;;;;;;82.70;34.78;;;;;;;9.45;44.15;100808.56;8461562;28;20044;-75
2022/03/23 08:28:14;;;;;;;70.43;29.90;;;;;;;9.77;43.35;100813.06;8461947;28;20085;-75
2022/03/23 08:32:15;;;;;;;72.70;33.53;;;;;;;9.96;42.96;100808.84;8461781;28;20048;-75
2022/03/23 08:36:16;;;;;;;62.03;29.30;;;;;;;10.09;42.18;100802.97;8425390;28;20138;-75
2022/03/23 08:40:17;;;;;;;63.20;29.58;;;;;;;10.35;41.28;100810.09;8461698;28;20048;-75
2022/03/23 08:44:18;;;;;;;78.53;31.95;;;;;;;10.68;41.14;100802.63;8425081;28;20390;-75
2022/03/23 08:48:19;;;;;;;70.22;29.90;;;;;;;11.04;40.01;100796.16;8461260;28;20047;-74
2022/03/23 08:52:20;;;;;;;66.47;28.95;;;;;;;11.16;39.66;100799.38;8442058;28;20513;-75
2022/03/23 08:56:21;;;;;;;49.63;23.73;;;;;;;11.43;38.98;100804.50;8461284;28;20119;-76
2022/03/23 09:00:22;;;;;;;49.72;22.33;;;;;;;11.54;38.15;100799.88;8460846;28;20043;-76
2022/03/23 09:04:23;;;;;;;42.55;19.92;;;;;;;11.80;36.05;100793.34;8461404;28;20042;-75
2022/03/23 09:08:25;;;;;;;48.85;20.63;;;;;;;12.00;36.37;100782.44;8460909;27;20051;-75
2022/03/23 09:12:28;;;;;;;41.08;18.65;;;;;;;12.33;34.00;100786.34;8460618;28;20056;-76
2022/03/23 09:16:29;;;;;;;35.22;15.00;;;;;;;12.57;33.33;100775.66;8458377;28;20468;-76
2022/03/23 09:20:30;;;;;;;41.33;18.63;;;;;;;12.72;33.46;100767.41;8460394;28;20036;-75
2022/03/23 09:24:31;;;;;;;38.47;17.60;;;;;;;12.98;31.62;100770.72;8460372;28;20044;-76
2022/03/23 09:28:32;;;;;;;43.15;20.08;;;;;;;13.14;32.13;100763.28;8460103;28;20485;-75
2022/03/23 09:32:33;;;;;;;39.63;18.45;;;;;;;13.33;31.47;100756.84;8460132;28;20051;-74
2022/03/23 09:40:53;;;;;;;50.90;24.73;;;;;;;13.80;31.44;100758.78;8460369;28;20130;-74
2022/03/23 09:44:57;;;;;;;47.42;20.98;;;;;;;13.89;30.87;100748.91;8459805;28;20048;-75
2022/03/23 09:48:58;;;;;;;54.65;23.25;;;;;;;14.16;29.96;100747.47;8460088;28;20047;-75
2022/03/23 09:53:00;;;;;;;40.13;20.60;;;;;;;14.27;30.16;100738.09;8459951;28;20052;-75
2022/03/23 09:57:01;;;;;;;42.05;20.50;;;;;;;14.43;30.49;100741.44;8440459;28;20051;-75
2022/03/23 10:01:04;;;;;;;47.80;23.60;;;;;;;14.61;30.74;100733.25;8459644;28;20138;-75
2022/03/23 10:05:45;;;;;;;42.05;19.92;;;;;;;14.75;30.30;100734.09;8459554;28;20048;-75
2022/03/23 10:10:14;;;;;;;29.15;14.35;;;;;;;15.10;28.46;100729.16;8459668;28;20086;-75
2022/03/23 10:14:24;;;;;;;27.85;14.98;;;;;;;15.19;28.15;100738.25;8459672;28;20513;-76
2022/03/23 10:18:49;;;;;;;30.70;16.17;;;;;;;15.46;27.33;100727.41;8459775;28;20147;-75
2022/03/23 10:22:52;;;;;;;30.10;15.45;;;;;;;15.52;26.96;100720.78;8459366;28;20051;-75
2022/03/23 10:26:53;;;;;;;28.92;13.13;;;;;;;15.71;25.00;100719.84;8440143;28;20090;-76
2022/03/23 10:30:54;;;;;;;31.08;14.57;;;;;;;15.77;26.50;100710.47;8459411;28;20556;-75
2022/03/23 10:34:55;;;;;;;27.58;13.45;;;;;;;15.90;26.04;100715.13;8439960;28;20067;-75
2022/03/23 10:39:05;;;;;;;26.20;11.60;;;;;;;16.23;26.16;100704.84;8459063;28;20055;-75
2022/03/23 10:43:06;;;;;;;28.90;13.02;;;;;;;16.34;26.12;100696.13;8459549;28;20100;-75
2022/03/23 10:47:08;;;;;;;24.75;12.90;;;;;;;16.34;26.59;100693.38;8439926;28;20087;-75
2022/03/23 10:51:09;;;;;;;23.17;12.35;;;;;;;16.46;26.40;100685.47;8464537;28;20043;-76
2022/03/23 10:55:10;;;;;;;26.35;14.52;;;;;;;16.56;25.35;100689.06;8445899;28;20059;-75
2022/03/23 10:59:26;;;;;;;28.42;15.15;;;;;;;16.48;26.00;100677.81;8428814;28;20086;-76
2022/03/23 11:03:42;;;;;;;35.67;14.98;;;;;;;16.74;26.40;100669.00;8464718;28;20047;-76
2022/03/23 11:07:43;;;;;;;25.98;12.75;;;;;;;16.91;25.46;100673.78;8464687;28;20073;-75
2022/03/23 11:16:27;;;;;;;29.77;13.30;;;;;;;17.19;24.21;100659.59;8464376;28;20044;-75
2022/03/23 11:20:39;;;;;;;25.52;12.75;;;;;;;17.37;23.58;100659.69;8464258;28;20425;-75
2022/03/23 11:24:42;;;;;;;20.58;10.60;;;;;;;17.51;22.96;100649.44;8463935;28;20058;-75
2022/03/23 11:28:47;;;;;;;15.00;8.25;;;;;;;17.75;20.90;100638.94;8463747;28;20398;-75
2022/03/23 11:32:49;;;;;;;17.90;9.98;;;;;;;17.71;20.52;100641.47;8463902;28;20557;-75
2022/03/23 11:36:52;;;;;;;20.55;11.52;;;;;;;17.81;21.09;100626.72;8463767;28;20048;-74
2022/03/23 11:40:54;;;;;;;25.25;12.90;;;;;;;17.95;21.29;100630.09;8464076;27;20130;-75
2022/03/23 11:44:55;;;;;;;26.48;11.40;;;;;;;18.00;20.72;100619.00;8463495;28;20085;-75
2022/03/23 11:49:25;;;;;;;22.23;9.40;;;;;;;18.19;19.55;100620.63;8463159;28;20047;-75
2022/03/23 11:53:34;;;;;;;20.13;8.93;;;;;;;18.14;18.78;100614.16;8461835;28;20097;-75
2022/03/23 11:57:54;;;;;;;23.23;10.88;;;;;;;18.27;20.02;100608.88;8463628;28;20043;-75
2022/03/23 12:01:57;;;;;;;19.75;10.55;;;;;;;18.49;19.36;100608.69;8462038;28;20063;-75
2022/03/23 12:06:09;;;;;;;24.40;11.52;;;;;;;18.44;19.25;100606.13;8462832;28;20048;-75
2022/03/23 12:10:31;;;;;;;24.98;11.30;;;;;;;18.43;19.47;100593.56;8462537;28;20048;-75
2022/03/23 12:14:37;;;;;;;23.60;12.25;;;;;;;18.59;19.95;100581.00;8461493;28;20081;-75
2022/03/23 12:18:58;;;;;;;28.05;12.60;;;;;;;18.96;20.29;100593.09;8462313;28;20097;-75
2022/03/23 12:23:14;;;;;;;26.35;12.90;;;;;;;18.99;18.98;100585.03;8462098;28;20047;-75
2022/03/23 12:27:57;;;;;;;21.42;12.85;;;;;;;18.91;19.82;100577.66;8442542;28;20044;-75
2022/03/23 12:32:16;;;;;;;28.02;13.93;;;;;;;19.11;20.11;100569.84;8461905;28;20048;-75
2022/03/23 12:36:27;;;;;;;29.15;14.90;;;;;;;19.20;20.30;100562.38;8461840;28;20058;-75
2022/03/23 12:40:42;;;;;;;26.23;14.48;;;;;;;19.33;19.00;100556.66;8461864;28;20055;-75
2022/03/23 12:45:03;;;;;;;27.52;13.45;;;;;;;19.35;19.94;100554.38;8461361;28;20059;-75
2022/03/23 12:58:27;;;;;;;26.00;12.55;;;;;;;19.50;18.95;100541.28;8461257;28;20043;-75
2022/03/23 13:02:31;;;;;;;23.30;11.75;;;;;;;19.59;18.86;100531.84;8460544;28;20047;-76
2022/03/23 13:06:37;;;;;;;26.48;11.40;;;;;;;19.86;18.32;100518.75;8460934;28;20048;-75
2022/03/23 13:10:38;;;;;;;29.10;11.27;;;;;;;19.79;17.96;100514.59;8460870;28;20508;-75
2022/03/23 13:14:39;;;;;;;22.05;9.98;;;;;;;19.78;18.62;100518.47;8459659;28;20052;-75
2022/03/23 13:18:41;;;;;;;17.08;9.93;;;;;;;19.91;19.02;100510.31;8459446;28;20099;-75
2022/03/23 13:22:44;;;;;;;20.23;10.40;;;;;;;19.93;18.32;100502.56;8460500;28;20127;-76
2022/03/23 13:26:46;;;;;;;22.25;10.15;;;;;;;20.54;17.18;100496.09;8441182;28;20055;-75
2022/03/23 13:30:46;;;;;;;18.50;10.85;;;;;;;21.41;16.32;100490.25;8460591;28;20047;-75
2022/03/23 13:34:56;;;;;;;19.65;10.18;;;;;;;22.57;16.27;100480.84;8460535;28;20063;-75
2022/03/23 13:38:57;;;;;;;20.63;9.65;;;;;;;23.25;15.37;100477.75;8460164;28;20043;-75
2022/03/23 13:47:41;;;;;;;21.30;8.65;;;;;;;25.22;14.32;100463.22;8460021;28;20043;-75
2022/03/23 13:51:45;;;;;;;14.93;8.30;;;;;;;26.21;13.96;100453.31;8458637;28;20047;-76
2022/03/23 13:55:48;;;;;;;16.38;7.88;;;;;;;26.81;13.58;100458.56;8459774;28;20074;-76
2022/03/23 13:59:51;;;;;;;12.07;6.63;;;;;;;27.64;13.10;100450.38;8460006;28;20389;-76
2022/03/23 14:03:57;;;;;;;13.10;6.82;;;;;;;28.37;11.71;100448.16;8459772;28;20043;-76
2022/03/23 14:07:59;;;;;;;16.02;6.25;;;;;;;27.95;11.79;100444.09;8459724;28;20048;-76
2022/03/23 14:12:06;;;;;;;12.30;6.30;;;;;;;28.13;11.33;100433.84;8459822;28;20079;-76
2022/03/23 14:16:07;;;;;;;12.75;6.60;;;;;;;28.60;11.41;100434.66;8458757;28;20054;-76
2022/03/23 14:20:09;;;;;;;10.70;6.55;;;;;;;28.32;12.27;100429.09;8440481;28;20497;-76
2022/03/23 14:24:10;;;;;;;12.70;6.38;;;;;;;29.13;12.15;100422.66;8426860;28;20039;-76
2022/03/23 14:28:22;;;;;;;16.17;6.57;;;;;;;29.91;10.69;100422.34;8413020;28;20083;-75
2022/03/23 14:32:30;;;;;;;14.60;6.25;;;;;;;29.76;10.60;100422.41;8432000;28;20058;-76
2022/03/23 14:36:31;;;;;;;9.15;5.90;;;;;;;30.00;10.47;100417.88;8431913;28;20080;-76
2022/03/23 14:40:36;;;;;;;13.82;5.53;;;;;;;29.59;10.11;100411.34;8412791;28;20060;-76
2022/03/23 14:44:40;;;;;;;14.32;5.45;;;;;;;29.92;10.21;100408.00;8430428;28;20336;-76
2022/03/23 14:48:41;;;;;;;10.88;6.13;;;;;;;30.16;10.42;100397.88;8431477;28;20052;-76
2022/03/23 14:52:45;;;;;;;9.60;5.60;;;;;;;30.55;9.76;100401.16;8431443;28;20577;-76
2022/03/23 14:56:49;;;;;;;8.32;5.50;;;;;;;30.73;9.78;100394.59;8395626;28;20048;-76
2022/03/23 15:00:54;;;;;;;9.68;5.63;;;;;;;31.02;9.12;100385.53;8431114;28;20551;-74
2022/03/23 15:04:55;;;;;;;8.45;5.20;;;;;;;30.95;10.10;100382.00;8430895;28;20040;-74
2022/03/23 15:13:16;;;;;;;8.15;4.88;;;;;;;29.70;9.60;100373.91;8430773;28;20052;-74
2022/03/23 15:17:16;;;;;;;7.80;5.00;;;;;;;29.21;9.96;100369.38;8430607;28;20489;-74
2022/03/23 15:21:19;;;;;;;8.65;4.65;;;;;;;29.14;10.44;100368.59;8430818;28;20555;-74
2022/03/23 15:25:20;;;;;;;18.10;6.70;;;;;;;29.26;10.77;100370.94;8435037;28;20047;-74
2022/03/23 15:29:21;;;;;;;10.45;6.40;;;;;;;28.10;11.95;100367.97;8479953;27;20063;-74
2022/03/23 15:33:25;;;;;;;10.73;6.97;;;;;;;26.53;12.89;100375.28;8463938;28;20051;-75
2022/03/23 17:13:00;;;;;;;18.13;9.35;;;;;;;15.37;26.01;100359.00;8427143;28;20082;-73
2022/03/23 17:17:02;;;;;;;28.05;10.98;;;;;;;15.11;26.56;100366.19;8425991;28;20132;-73
2022/03/23 17:21:03;;;;;;;41.35;13.65;;;;;;;14.66;27.12;100366.09;8425537;28;20042;-73
2022/03/23 17:25:07;;;;;;;29.85;12.80;;;;;;;14.35;27.75;100360.47;8422446;28;20060;-72
2022/03/23 17:29:09;;;;;;;38.45;12.20;;;;;;;14.09;28.03;100369.44;8398315;28;20131;-73
2022/03/23 17:33:10;;;;;;;31.48;12.90;;;;;;;13.86;28.24;100369.28;8423764;28;20052;-73
2022/03/23 17:37:12;;;;;;;23.40;10.27;;;;;;;13.69;28.41;100374.50;8427865;28;20085;-72
2022/03/23 17:41:15;;;;;;;26.60;11.80;;;;;;;13.48;28.76;100378.69;8427401;28;20055;-73
2022/03/23 17:45:16;;;;;;;32.30;14.57;;;;;;;13.33;29.55;100376.19;8425419;28;20135;-72
2022/03/23 17:49:18;;;;;;;29.33;13.27;;;;;;;13.17;30.25;100382.94;8439021;28;20052;-72
2022/03/23 17:53:20;;;;;;;27.08;11.75;;;;;;;12.91;30.64;100380.59;8424321;28;20054;-72
2022/03/23 17:57:21;;;;;;;29.17;12.43;;;;;;;12.66;30.94;100380.94;8426895;28;20587;-72
2022/03/23 18:01:22;;;;;;;35.67;15.88;;;;;;;12.43;31.13;100379.06;8424208;28;20249;-72
2022/03/23 18:05:23;;;;;;;68.32;22.25;;;;;;;12.26;31.59;100380.38;8399476;28;20415;-73
2022/03/23 18:09:24;;;;;;;53.28;19.40;;;;;;;12.09;31.65;100380.00;8401540;28;20128;-72
2022/03/23 18:13:27;;;;;;;56.53;21.25;;;;;;;11.97;32.18;100387.72;8399089;28;20537;-72
2022/03/23 18:17:30;;;;;;;66.45;25.17;;;;;;;11.73;32.38;100381.47;8402089;28;20051;-72
2022/03/23 18:21:32;;;;;;;47.20;19.75;;;;;;;11.57;32.74;100382.69;8403843;28;20083;-72
2022/03/23 18:25:34;;;;;;;43.40;19.38;;;;;;;11.39;33.26;100382.28;8400967;28;20056;-72
2022/03/23 18:29:36;;;;;;;59.80;23.60;;;;;;;11.15;33.40;100378.69;8400305;28;20106;-72
2022/03/23 18:33:40;;;;;;;84.40;36.45;;;;;;;10.99;33.69;100382.56;8384639;28;20055;-72
2022/03/23 18:37:43;;;;;;;80.75;32.10;;;;;;;10.87;33.64;100379.41;8372948;28;20495;-72
2022/03/23 18:41:44;;;;;;;77.07;33.08;;;;;;;10.74;33.82;100380.00;8401174;28;20734;-73
2022/03/23 18:45:46;;;;;;;79.50;33.65;;;;;;;10.65;34.23;100381.69;8389561;28;20049;-72
2022/03/23 18:49:49;;;;;;;95.28;37.60;;;;;;;10.47;34.36;100386.63;8340965;28;20072;-73
2022/03/23 18:53:53;;;;;;;93.28;35.50;;;;;;;10.39;34.21;100389.91;8403840;28;20411;-73
2022/03/23 18:57:54;;;;;;;178.55;55.35;;;;;;;10.30;34.77;100380.75;8400107;28;20128;-72
2022/03/23 19:01:55;;;;;;;207.40;64.93;;;;;;;10.15;34.35;100388.88;8385017;28;20477;-72
2022/03/23 19:05:57;;;;;;;173.95;50.97;;;;;;;10.06;34.90;100385.09;8402802;28;20516;-72
2022/03/23 19:09:59;;;;;;;101.78;35.25;;;;;;;9.98;35.00;100383.78;8394100;28;20057;-72
2022/03/23 19:14:01;;;;;;;70.55;26.80;;;;;;;9.90;34.76;100388.91;8384290;28;20048;-71
2022/03/23 19:18:04;;;;;;;93.03;28.58;;;;;;;9.74;34.95;100394.34;8397555;28;20057;-72
2022/03/23 19:22:06;;;;;;;97.70;29.88;;;;;;;9.60;35.33;100398.69;8400455;28;20115;-72
2022/03/23 19:26:08;;;;;;;94.00;31.38;;;;;;;9.51;35.48;100394.91;8404605;28;20057;-73
2022/03/23 19:30:12;;;;;;;102.97;30.90;;;;;;;9.45;36.09;100396.00;8392672;28;20060;-72
2022/03/23 19:34:14;;;;;;;85.75;29.52;;;;;;;9.36;36.16;100392.19;8398045;28;20048;-72
2022/03/23 19:38:16;;;;;;;104.13;34.20;;;;;;;9.21;36.61;100395.69;8393062;28;20059;-73
2022/03/23 19:42:19;;;;;;;89.72;31.52;;;;;;;9.04;36.57;100399.72;8352999;28;20415;-72
2022/03/23 19:46:20;;;;;;;89.57;30.50;;;;;;;8.93;37.00;100398.09;8399819;28;20059;-72
2022/03/23 19:50:22;;;;;;;75.90;26.38;;;;;;;8.83;37.33;100402.34;8392634;28;20087;-71
2022/03/23 19:54:25;;;;;;;62.20;24.42;;;;;;;8.69;37.49;100393.16;8394178;28;20147;-71
2022/03/23 19:58:26;;;;;;;49.88;20.30;;;;;;;8.52;37.89;100392.56;8395281;28;20071;-72
2022/03/23 20:02:27;;;;;;;46.25;20.83;;;;;;;8.41;37.93;100397.09;8394388;28;20052;-72
2022/03/23 20:06:29;;;;;;;66.70;22.35;;;;;;;8.36;38.37;100396.28;8394138;28;20102;-72
2022/03/23 20:10:30;;;;;;;50.58;21.33;;;;;;;8.27;38.54;100384.38;8398030;28;20054;-72
2022/03/23 20:14:31;;;;;;;65.68;24.63;;;;;;;8.16;39.20;100388.06;8403074;28;20036;-72
2022/03/23 20:18:33;;;;;;;67.85;25.75;;;;;;;8.01;39.20;100386.94;8397777;28;20511;-71
2022/03/23 20:22:36;;;;;;;67.55;25.27;;;;;;;7.89;39.60;100394.38;8403441;28;20044;-72
2022/03/23 20:26:39;;;;;;;69.82;26.42;;;;;;;7.81;39.91;100392.19;8401370;28;20041;-72
2022/03/23 20:30:40;;;;;;;56.65;21.55;;;;;;;7.69;40.01;100394.25;8392829;28;20538;-72
2022/03/23 20:34:42;;;;;;;50.90;22.02;;;;;;;7.59;40.15;100388.81;8391438;28;20040;-72
2022/03/23 20:38:44;;;;;;;51.88;21.30;;;;;;;7.46;40.37;100395.41;8393045;28;20135;-71
2022/03/23 20:42:45;;;;;;;43.55;20.13;;;;;;;7.38;40.67;100397.78;8387876;28;20048;-72
2022/03/23 20:46:46;;;;;;;45.70;19.27;;;;;;;7.34;40.99;100391.28;8394672;28;20131;-72
2022/03/23 20:50:50;;;;;;;44.53;19.65;;;;;;;7.24;41.64;100407.34;8394361;28;20053;-71
2022/03/23 20:54:51;;;;;;;37.05;19.23;;;;;;;7.05;41.85;100404.19;8393674;28;20423;-72